This is the latest recevied weather packets stored in our database for station/object F5NTS. If no packets are shown the sender has not sent any weather packets the latest 10 day(s).
| Time | Temp. | Humidity | Pressure | Rain* | Wind** | Luminosity | Snow |
|---|---|---|---|---|---|---|---|
| 1777520104 | 5.56° C | 47% | 1019.5 hPa | 0 mm | - | - | - |
| 1777518605 | 7.22° C | 44% | 1019.4 hPa | 0 mm | - | - | - |
| 1777518004 | 7.78° C | 43% | 1019.4 hPa | 0 mm | - | - | - |
| 1777517105 | 8.33° C | 42% | 1019.3 hPa | 0 mm | - | - | - |
| 1777516804 | 8.33° C | 42% | 1019.2 hPa | 0 mm | - | - | - |
| 1777512004 | 8.89° C | 40% | 1019.2 hPa | 0 mm | - | - | - |
| 1777511405 | 8.89° C | 40% | 1019.2 hPa | 0 mm | - | - | - |
| 1777509904 | 8.89° C | 39% | 1019.4 hPa | 0 mm | - | - | - |
| 1777507804 | 10° C | 37% | 1019.4 hPa | 0 mm | - | - | - |
| 1777504504 | 10.56° C | 37% | 1019.2 hPa | 0 mm | - | - | - |
| 1777502704 | 10° C | 37% | 1019.2 hPa | 0 mm | - | - | - |
| 1777500305 | 10° C | 36% | 1019.3 hPa | 0 mm | - | - | - |
| 1777499704 | 10.56° C | 34% | 1019.2 hPa | 0 mm | - | - | - |
| 1777498504 | 11.11° C | 32% | 1018.6 hPa | 0 mm | - | - | - |
| 1777497905 | 11.67° C | 31% | 1018.6 hPa | 0 mm | - | - | - |
| 1777497304 | 12.22° C | 31% | 1018.6 hPa | 0 mm | - | - | - |
| 1777490104 | 15.56° C | 28% | 1017.7 hPa | 0 mm | - | - | - |
| 1777486504 | 18.33° C | 26% | 1016.9 hPa | 0 mm | - | - | - |
| 1777483805 | 19.44° C | 25% | 1016.5 hPa | 0 mm | - | - | - |
| 1777482904 | 20° C | 25% | 1016.8 hPa | 0 mm | - | - | - |
| 1777480804 | 22.22° C | 25% | 1016.7 hPa | 0 mm | - | - | - |
| 1777476904 | 23.89° C | 29% | 1016.7 hPa | 0 mm | - | - | - |
| 1777475105 | 24.44° C | 29% | 1016.9 hPa | 0 mm | - | - | - |
| 1777473304 | 24.44° C | 31% | 1017 hPa | 0 mm | - | - | - |
| 1777472404 | 24.44° C | 31% | 1017.2 hPa | 0 mm | - | - | - |
* Rain latest hour (hover to see other rain measurements)
** Current wind speed in m/s (hover to see current wind gust speed)